createdAt,value
2023-04-17T00:01:29.061Z,8.08
2023-04-17T00:06:33.916Z,7.95
2023-04-17T00:11:37.222Z,8.11
2023-04-17T00:16:41.761Z,7.95
2023-04-17T00:21:44.975Z,8.00
2023-04-17T00:26:48.439Z,7.84
2023-04-17T00:31:53.141Z,7.67
2023-04-17T00:36:56.360Z,7.94
2023-04-17T00:41:59.677Z,7.64
2023-04-17T00:47:04.607Z,8.02
2023-04-17T00:52:08.092Z,8.06
2023-04-17T00:57:11.543Z,8.07
2023-04-17T01:02:16.880Z,7.98
2023-04-17T01:07:20.172Z,8.22
2023-04-17T01:12:25.455Z,7.95
2023-04-17T01:17:30.252Z,8.00
2023-04-17T01:22:33.769Z,8.05
2023-04-17T01:27:38.616Z,7.83
2023-04-17T01:32:42.154Z,7.69
2023-04-17T01:37:45.404Z,8.03
2023-04-17T01:42:49.879Z,8.04
2023-04-17T01:47:53.969Z,7.96
2023-04-17T01:52:57.168Z,7.83
2023-04-17T01:58:01.856Z,7.80
2023-04-17T02:03:05.374Z,7.70
2023-04-17T02:08:08.750Z,7.65
2023-04-17T02:13:13.596Z,7.70
2023-04-17T02:18:19.253Z,7.87
2023-04-17T02:23:22.464Z,7.79
2023-04-17T02:28:27.113Z,7.80
2023-04-17T02:33:30.334Z,7.86
2023-04-17T02:38:34.540Z,7.68
2023-04-17T02:43:39.049Z,7.80
2023-04-17T02:48:42.417Z,7.78
2023-04-17T02:53:46.043Z,7.79
2023-04-17T02:58:50.479Z,7.77
2023-04-17T03:03:54.007Z,7.83
2023-04-17T03:08:57.470Z,7.70
2023-04-17T03:14:02.798Z,7.56
2023-04-17T03:19:05.933Z,7.46
2023-04-17T03:24:11.311Z,7.33
2023-04-17T03:29:17.101Z,7.32
2023-04-17T03:34:22.466Z,7.48
2023-04-17T03:39:26.728Z,7.24
2023-04-17T03:44:31.602Z,7.19
2023-04-17T03:49:34.940Z,7.21
2023-04-17T03:54:38.388Z,7.33
2023-04-17T03:59:44.526Z,7.14
2023-04-17T04:04:50.911Z,7.05
2023-04-17T04:09:56.091Z,6.99
2023-04-17T04:15:02.131Z,7.05
2023-04-17T04:20:08.924Z,7.22
2023-04-17T04:25:12.548Z,6.74
2023-04-17T04:30:50.728Z,6.91
2023-04-17T04:36:01.911Z,7.13
2023-04-17T04:41:10.373Z,7.31
2023-04-17T04:46:16.568Z,7.04
2023-04-17T04:51:22.536Z,7.31
2023-04-17T04:56:27.224Z,7.11
2023-04-17T05:01:32.821Z,6.82
2023-04-17T05:06:36.891Z,6.84
2023-04-17T05:11:40.751Z,6.72
2023-04-17T05:16:45.571Z,6.84
2023-04-17T05:21:50.314Z,6.96
2023-04-17T05:26:56.888Z,6.72
2023-04-17T05:32:01.963Z,6.76
2023-04-17T05:37:28.415Z,6.77
2023-04-17T05:42:32.349Z,7.11
2023-04-17T05:47:38.291Z,6.87
2023-04-17T05:52:41.697Z,7.02
2023-04-17T05:57:47.549Z,6.90
2023-04-17T06:02:52.470Z,6.85
2023-04-17T06:08:07.033Z,6.93
2023-04-17T06:13:10.205Z,7.09
2023-04-17T06:18:16.142Z,7.13
2023-04-17T06:23:19.486Z,6.97
2023-04-17T06:28:22.574Z,7.21
2023-04-17T06:33:30.139Z,6.95
2023-04-17T06:38:33.763Z,6.82
2023-04-17T06:43:37.751Z,6.74
2023-04-17T06:48:52.411Z,6.82
2023-04-17T06:53:55.852Z,6.95
2023-04-17T06:58:59.827Z,6.87
2023-04-17T07:04:06.129Z,6.72
2023-04-17T07:09:09.419Z,6.55
2023-04-17T07:14:13.006Z,6.75
2023-04-17T07:19:17.734Z,6.61
2023-04-17T07:24:21.214Z,6.99
2023-04-17T07:29:24.442Z,6.89
2023-04-17T07:34:31.214Z,6.90
2023-04-17T07:39:34.455Z,6.73
2023-04-17T07:44:37.613Z,6.65
2023-04-17T07:49:42.117Z,6.88
2023-04-17T07:54:45.702Z,7.04
2023-04-17T07:59:49.043Z,7.28
2023-04-17T08:04:54.473Z,7.01
2023-04-17T08:09:57.881Z,7.12
2023-04-17T08:15:01.173Z,7.08
2023-04-17T08:20:11.424Z,7.05
2023-04-17T08:25:15.063Z,6.95
2023-04-17T08:30:19.307Z,7.00
2023-04-17T08:35:25.304Z,7.05
2023-04-17T08:40:28.815Z,7.28
2023-04-17T08:45:33.560Z,7.01
2023-04-17T08:50:38.586Z,7.08
2023-04-17T08:55:41.785Z,6.86
2023-04-17T09:00:48.773Z,6.81
2023-04-17T09:05:58.649Z,6.72
2023-04-17T09:11:01.889Z,6.92
2023-04-17T09:16:07.435Z,6.76
2023-04-17T09:21:12.123Z,7.02
2023-04-17T09:26:17.033Z,7.04
2023-04-17T09:31:28.272Z,7.13
2023-04-17T09:36:34.820Z,7.35
2023-04-17T09:41:39.560Z,7.34
2023-04-17T09:46:46.028Z,7.10
2023-04-17T09:51:51.569Z,7.50
2023-04-17T09:56:56.066Z,7.44
2023-04-17T10:01:59.998Z,7.33
2023-04-17T10:07:05.183Z,7.40
2023-04-17T10:12:12.911Z,7.45
2023-04-17T10:17:28.617Z,7.53
2023-04-17T10:22:34.829Z,7.85
2023-04-17T10:27:45.469Z,7.91
2023-04-17T10:33:21.979Z,8.19
2023-04-17T10:38:36.921Z,8.62
2023-04-17T10:43:42.630Z,8.81
2023-04-17T10:48:52.201Z,8.79
2023-04-17T10:53:59.104Z,8.82
2023-04-17T10:59:04.489Z,9.30
2023-04-17T11:04:08.608Z,9.69
2023-04-17T11:09:13.525Z,9.22
2023-04-17T11:14:18.476Z,8.96
2023-04-17T11:19:23.483Z,9.53
2023-04-17T11:24:29.590Z,9.66
2023-04-17T11:29:32.981Z,10.62
2023-04-17T11:34:38.204Z,10.30
2023-04-17T11:39:44.468Z,10.80
2023-04-17T11:44:47.780Z,10.78
2023-04-17T11:49:51.113Z,10.10
2023-04-17T11:54:59.880Z,10.66
2023-04-17T12:00:14.062Z,10.58
2023-04-17T12:05:18.501Z,10.48
2023-04-17T12:10:24.329Z,10.11
2023-04-17T12:15:27.518Z,11.20
2023-04-17T12:20:30.876Z,10.79
2023-04-17T12:25:35.898Z,11.59
2023-04-17T12:30:39.961Z,10.86
2023-04-17T12:35:43.348Z,10.62
2023-04-17T12:40:51.509Z,11.16
2023-04-17T12:45:54.966Z,11.20
2023-04-17T12:50:58.201Z,10.90
2023-04-17T12:56:03.873Z,10.33
2023-04-17T13:01:07.244Z,10.69
2023-04-17T13:06:10.555Z,11.39
2023-04-17T13:11:15.117Z,11.91
2023-04-17T13:16:18.326Z,11.42
2023-04-17T13:21:22.057Z,11.53
2023-04-17T13:26:27.011Z,11.06
2023-04-17T13:31:30.813Z,11.11
2023-04-17T13:36:35.070Z,10.94
2023-04-17T13:41:39.768Z,11.48
2023-04-17T13:46:44.128Z,12.17
2023-04-17T13:51:47.778Z,11.32
2023-04-17T13:56:54.428Z,10.98
2023-04-17T14:02:00.223Z,10.85
2023-04-17T14:07:03.681Z,12.02
2023-04-17T14:12:08.447Z,11.80
2023-04-17T14:17:11.593Z,10.98
2023-04-17T14:22:14.934Z,10.70
2023-04-17T14:27:19.570Z,10.63
2023-04-17T14:32:25.189Z,10.40
2023-04-17T14:37:29.575Z,10.60
2023-04-17T14:42:40.734Z,10.76
2023-04-17T14:47:54.285Z,10.25
2023-04-17T14:52:58.341Z,10.25
2023-04-17T14:58:02.953Z,10.36
2023-04-17T15:03:07.537Z,10.49
2023-04-17T15:08:11.158Z,10.76
2023-04-17T15:13:17.356Z,11.64
2023-04-17T15:18:21.105Z,11.52
2023-04-17T15:23:25.658Z,10.89
2023-04-17T15:28:31.643Z,10.46
2023-04-17T15:33:35.353Z,10.82
2023-04-17T15:38:38.712Z,10.61
2023-04-17T15:43:44.213Z,10.29
2023-04-17T15:48:57.661Z,10.10
2023-04-17T15:54:12.256Z,10.37
2023-04-17T15:59:16.929Z,10.49
2023-04-17T16:04:20.807Z,10.49
2023-04-17T16:09:24.567Z,10.87
2023-04-17T16:14:29.135Z,10.77
2023-04-17T16:19:32.608Z,10.39
2023-04-17T16:24:35.880Z,10.26
2023-04-17T16:29:41.116Z,10.06
2023-04-17T16:34:44.394Z,10.01
2023-04-17T16:39:47.724Z,9.95
2023-04-17T16:44:52.325Z,10.22
2023-04-17T16:49:55.787Z,10.66
2023-04-17T16:54:59.923Z,10.36
2023-04-17T17:00:05.310Z,10.13
2023-04-17T17:05:12.257Z,10.09
2023-04-17T17:10:15.520Z,9.92
2023-04-17T17:15:21.334Z,10.14
2023-04-17T17:20:25.220Z,9.86
2023-04-17T17:25:28.494Z,9.66
2023-04-17T17:30:36.637Z,9.54
2023-04-17T17:35:39.916Z,9.62
2023-04-17T17:40:44.368Z,9.42
2023-04-17T17:45:54.468Z,9.24
2023-04-17T17:51:01.463Z,9.12
2023-04-17T17:56:09.933Z,8.91
2023-04-17T18:01:16.305Z,8.82
2023-04-17T18:06:19.704Z,8.64
2023-04-17T18:11:24.946Z,8.36
2023-04-17T18:16:33.331Z,7.97
2023-04-17T18:21:36.870Z,7.69
2023-04-17T18:26:40.179Z,7.46
2023-04-17T18:31:46.210Z,7.19
2023-04-17T18:36:50.544Z,6.91
2023-04-17T18:41:57.098Z,6.20
2023-04-17T18:47:02.320Z,6.28
2023-04-17T18:52:06.423Z,5.82
2023-04-17T18:57:13.000Z,5.90
2023-04-17T19:02:20.530Z,5.75
2023-04-17T19:07:24.019Z,5.70
2023-04-17T19:12:27.484Z,5.39
2023-04-17T19:17:35.265Z,5.48
2023-04-17T19:22:39.797Z,5.37
2023-04-17T19:27:46.844Z,5.42
2023-04-17T19:32:51.965Z,5.33
2023-04-17T19:37:58.602Z,5.34
2023-04-17T19:43:06.992Z,5.13
2023-04-17T19:48:12.316Z,4.99
2023-04-17T19:53:16.503Z,4.76
2023-04-17T19:58:22.504Z,4.82
2023-04-17T20:03:29.639Z,4.72
2023-04-17T20:08:33.602Z,4.68
2023-04-17T20:13:37.242Z,4.66
2023-04-17T20:18:47.033Z,4.68
2023-04-17T20:23:50.701Z,4.70
2023-04-17T20:28:55.551Z,4.70
2023-04-17T20:34:01.123Z,4.73
2023-04-17T20:39:04.878Z,4.73
2023-04-17T20:44:11.114Z,4.67
2023-04-17T20:49:16.182Z,4.73
2023-04-17T20:54:23.191Z,4.83
2023-04-17T20:59:26.553Z,4.81
2023-04-17T21:04:31.448Z,4.85
2023-04-17T21:09:35.275Z,5.00
2023-04-17T21:14:38.432Z,4.94
2023-04-17T21:19:43.021Z,5.10
2023-04-17T21:24:46.206Z,5.20
2023-04-17T21:29:49.348Z,5.29
2023-04-17T21:34:53.889Z,5.46
2023-04-17T21:39:57.237Z,5.48
2023-04-17T21:45:00.450Z,5.44
2023-04-17T21:50:05.708Z,5.36
2023-04-17T21:55:09.794Z,5.45
2023-04-17T22:00:14.478Z,5.59
2023-04-17T22:05:19.464Z,5.71
2023-04-17T22:10:22.777Z,5.58
2023-04-17T22:15:25.882Z,5.83
2023-04-17T22:20:30.588Z,5.81
2023-04-17T22:25:34.130Z,5.93
2023-04-17T22:30:37.543Z,6.03
2023-04-17T22:35:42.111Z,6.21
2023-04-17T22:40:45.328Z,6.28
2023-04-17T22:45:48.434Z,6.24
2023-04-17T22:50:52.978Z,6.37
2023-04-17T22:56:02.947Z,6.32
2023-04-17T23:01:06.324Z,6.53
2023-04-17T23:06:11.245Z,6.59
2023-04-17T23:11:14.325Z,6.43
2023-04-17T23:16:18.016Z,6.51
2023-04-17T23:21:22.739Z,6.39
2023-04-17T23:26:26.071Z,6.35
2023-04-17T23:31:29.437Z,6.39
2023-04-17T23:36:33.930Z,6.43
2023-04-17T23:41:37.414Z,6.28
2023-04-17T23:46:40.509Z,6.24
2023-04-17T23:51:45.128Z,6.31
2023-04-17T23:56:48.395Z,6.15
